Berkley, Michigan
Current Conditions -  °F | °C
As of 2:55 PM on Friday 24 Oct 2014 (Local Time) from KVLL Reporting Station
Overcast Overcast  
Wind Chill: 16°   Ceiling: 3600
Heat Index: 16°   Visibility: 10mi
Dew Point:   Wind: 5mph
Humidity: 52%   Direction: 230°SW
Pressure: 30.01"   Gusts: NA
Location:  42.5°N, 83.18°W
Report Text: KVLL 241855Z AUTO 23004KT 10SM OVC036 16/06 A3001 RMK AO2 T01600061
Loading
Personal Weather Stations






























Interactive Weather Map
Tropical Storm Tracking
New forecast layout! Learn more

10-Day Weather Forecast

Advertisements
Track Severe Weather on mobile